sensor_id;sensor_type;location;lat;lon;timestamp;pressure;altitude;pressure_sealevel;temperature
49557;BMP280;35462;45.048;7.666;2022-10-16T00:13:48;99280.81;;;21.36
49557;BMP280;35462;45.048;7.666;2022-10-16T00:29:04;99281.31;;;21.34
49557;BMP280;35462;45.048;7.666;2022-10-16T01:00:09;99298.00;;;21.24
49557;BMP280;35462;45.048;7.666;2022-10-16T01:30:58;99296.13;;;21.15
49557;BMP280;35462;45.048;7.666;2022-10-16T01:46:18;99299.38;;;21.05
49557;BMP280;35462;45.048;7.666;2022-10-16T02:01:36;99296.84;;;21.02
49557;BMP280;35462;45.048;7.666;2022-10-16T02:16:54;99313.19;;;20.98
49557;BMP280;35462;45.048;7.666;2022-10-16T02:32:10;99318.03;;;20.94
49557;BMP280;35462;45.048;7.666;2022-10-16T02:47:28;99328.38;;;20.87
49557;BMP280;35462;45.048;7.666;2022-10-16T03:02:43;99329.31;;;20.84
49557;BMP280;35462;45.048;7.666;2022-10-16T03:17:59;99327.97;;;20.79
49557;BMP280;35462;45.048;7.666;2022-10-16T03:33:15;99337.31;;;20.69
49557;BMP280;35462;45.048;7.666;2022-10-16T03:48:32;99350.66;;;20.64
49557;BMP280;35462;45.048;7.666;2022-10-16T04:03:48;99357.56;;;20.65
49557;BMP280;35462;45.048;7.666;2022-10-16T04:19:05;99363.53;;;20.60
49557;BMP280;35462;45.048;7.666;2022-10-16T04:34:20;99379.84;;;20.56
49557;BMP280;35462;45.048;7.666;2022-10-16T04:49:36;99393.00;;;20.54
49557;BMP280;35462;45.048;7.666;2022-10-16T05:04:52;99397.69;;;20.54
49557;BMP280;35462;45.048;7.666;2022-10-16T05:20:08;99401.09;;;20.54
49557;BMP280;35462;45.048;7.666;2022-10-16T05:35:24;99400.66;;;20.47
49557;BMP280;35462;45.048;7.666;2022-10-16T05:50:40;99409.41;;;20.42
49557;BMP280;35462;45.048;7.666;2022-10-16T06:05:56;99421.16;;;20.45
49557;BMP280;35462;45.048;7.666;2022-10-16T06:21:16;99445.69;;;20.47
49557;BMP280;35462;45.048;7.666;2022-10-16T06:36:31;99465.66;;;20.63
49557;BMP280;35462;45.048;7.666;2022-10-16T06:51:48;99482.81;;;20.84
49557;BMP280;35462;45.048;7.666;2022-10-16T07:07:04;99507.09;;;21.30
49557;BMP280;35462;45.048;7.666;2022-10-16T07:22:20;99511.88;;;21.59
49557;BMP280;35462;45.048;7.666;2022-10-16T07:37:36;99529.56;;;21.97
49557;BMP280;35462;45.048;7.666;2022-10-16T07:52:52;99551.44;;;22.14
49557;BMP280;35462;45.048;7.666;2022-10-16T08:08:12;99568.88;;;22.27
49557;BMP280;35462;45.048;7.666;2022-10-16T08:23:30;99577.44;;;22.40
49557;BMP280;35462;45.048;7.666;2022-10-16T08:38:48;99579.78;;;22.47
49557;BMP280;35462;45.048;7.666;2022-10-16T08:54:11;99582.75;;;22.78
49557;BMP280;35462;45.048;7.666;2022-10-16T09:24:49;99596.00;;;22.76
49557;BMP280;35462;45.048;7.666;2022-10-16T09:40:06;99597.44;;;22.91
49557;BMP280;35462;45.048;7.666;2022-10-16T09:55:22;99596.94;;;23.02
49557;BMP280;35462;45.048;7.666;2022-10-16T10:10:41;99597.50;;;23.25
49557;BMP280;35462;45.048;7.666;2022-10-16T10:56:58;99585.44;;;23.80
49557;BMP280;35462;45.048;7.666;2022-10-16T11:12:21;99577.97;;;23.95
49557;BMP280;35462;45.048;7.666;2022-10-16T11:27:44;99565.19;;;24.21
49557;BMP280;35462;45.048;7.666;2022-10-16T12:13:42;99561.84;;;23.61
49557;BMP280;35462;45.048;7.666;2022-10-16T12:29:20;99551.03;;;23.61
49557;BMP280;35462;45.048;7.666;2022-10-16T12:44:38;99538.91;;;23.57
49557;BMP280;35462;45.048;7.666;2022-10-16T13:00:11;99552.91;;;23.35
49557;BMP280;35462;45.048;7.666;2022-10-16T13:30:59;99549.13;;;23.27
49557;BMP280;35462;45.048;7.666;2022-10-16T13:46:22;99556.94;;;23.25
49557;BMP280;35462;45.048;7.666;2022-10-16T14:01:42;99558.97;;;23.30
49557;BMP280;35462;45.048;7.666;2022-10-16T14:16:59;99571.63;;;23.39
49557;BMP280;35462;45.048;7.666;2022-10-16T14:32:23;99581.25;;;23.40
49557;BMP280;35462;45.048;7.666;2022-10-16T14:47:49;99582.63;;;23.35
49557;BMP280;35462;45.048;7.666;2022-10-16T15:03:05;99575.47;;;23.32
49557;BMP280;35462;45.048;7.666;2022-10-16T15:18:21;99577.91;;;23.30
49557;BMP280;35462;45.048;7.666;2022-10-16T15:33:37;99594.41;;;23.32
49557;BMP280;35462;45.048;7.666;2022-10-16T15:48:57;99591.41;;;23.30
49557;BMP280;35462;45.048;7.666;2022-10-16T16:04:13;99603.66;;;23.26
49557;BMP280;35462;45.048;7.666;2022-10-16T16:19:29;99607.50;;;23.19
49557;BMP280;35462;45.048;7.666;2022-10-16T16:34:45;99615.34;;;23.17
49557;BMP280;35462;45.048;7.666;2022-10-16T16:50:01;99633.72;;;23.13
49557;BMP280;35462;45.048;7.666;2022-10-16T17:05:23;99645.00;;;23.12
49557;BMP280;35462;45.048;7.666;2022-10-16T17:20:39;99685.97;;;23.10
49557;BMP280;35462;45.048;7.666;2022-10-16T17:35:57;99714.22;;;23.09
49557;BMP280;35462;45.048;7.666;2022-10-16T17:51:17;99733.34;;;23.06
49557;BMP280;35462;45.048;7.666;2022-10-16T18:06:33;99751.88;;;22.99
49557;BMP280;35462;45.048;7.666;2022-10-16T18:21:49;99760.81;;;22.90
49557;BMP280;35462;45.048;7.666;2022-10-16T18:37:06;99758.00;;;22.85
49557;BMP280;35462;45.048;7.666;2022-10-16T18:52:25;99773.66;;;22.81
49557;BMP280;35462;45.048;7.666;2022-10-16T19:07:45;99796.63;;;22.76
49557;BMP280;35462;45.048;7.666;2022-10-16T19:23:03;99802.72;;;22.71
49557;BMP280;35462;45.048;7.666;2022-10-16T19:38:38;99819.56;;;22.66
49557;BMP280;35462;45.048;7.666;2022-10-16T19:54:05;99833.69;;;22.61
49557;BMP280;35462;45.048;7.666;2022-10-16T20:09:37;99851.91;;;22.52
49557;BMP280;35462;45.048;7.666;2022-10-16T20:24:53;99877.91;;;22.41
49557;BMP280;35462;45.048;7.666;2022-10-16T20:40:10;99880.53;;;22.26
49557;BMP280;35462;45.048;7.666;2022-10-16T20:55:26;99891.78;;;22.25
49557;BMP280;35462;45.048;7.666;2022-10-16T21:10:42;99918.34;;;22.17
49557;BMP280;35462;45.048;7.666;2022-10-16T21:25:58;99927.34;;;22.14
49557;BMP280;35462;45.048;7.666;2022-10-16T21:41:24;99935.00;;;22.07
49557;BMP280;35462;45.048;7.666;2022-10-16T21:56:40;99934.59;;;21.90
49557;BMP280;35462;45.048;7.666;2022-10-16T22:11:56;99942.38;;;21.88
49557;BMP280;35462;45.048;7.666;2022-10-16T22:27:12;99942.13;;;21.86
49557;BMP280;35462;45.048;7.666;2022-10-16T22:42:27;99945.41;;;21.82
49557;BMP280;35462;45.048;7.666;2022-10-16T22:57:43;99948.69;;;21.77
49557;BMP280;35462;45.048;7.666;2022-10-16T23:12:59;99944.97;;;21.74
49557;BMP280;35462;45.048;7.666;2022-10-16T23:28:15;99947.81;;;21.62
49557;BMP280;35462;45.048;7.666;2022-10-16T23:43:30;99962.81;;;21.54
49557;BMP280;35462;45.048;7.666;2022-10-16T23:58:47;99978.34;;;21.50
